createdAt,value
2019-04-11T00:00:33.766Z,53.70
2019-04-11T00:01:47.788Z,53.80
2019-04-11T00:02:49.041Z,53.90
2019-04-11T00:03:53.562Z,53.60
2019-04-11T00:04:58.756Z,53.60
2019-04-11T00:06:03.380Z,53.60
2019-04-11T00:07:08.139Z,53.70
2019-04-11T00:08:12.339Z,53.60
2019-04-11T00:09:18.652Z,53.80
2019-04-11T00:10:23.119Z,53.80
2019-04-11T00:11:28.149Z,53.90
2019-04-11T00:12:32.640Z,53.80
2019-04-11T00:13:36.942Z,53.90
2019-04-11T00:14:42.089Z,53.80
2019-04-11T00:15:46.409Z,54.00
2019-04-11T00:16:50.613Z,53.80
2019-04-11T00:17:54.847Z,54.00
2019-04-11T00:18:59.051Z,54.10
2019-04-11T00:20:04.226Z,53.80
2019-04-11T00:21:08.764Z,54.00
2019-04-11T00:22:13.200Z,54.00
2019-04-11T00:23:18.362Z,54.10
2019-04-11T00:24:22.901Z,54.20
2019-04-11T00:25:27.521Z,54.10
2019-04-11T00:26:32.748Z,54.10
2019-04-11T00:27:37.238Z,54.10
2019-04-11T00:28:41.707Z,54.70
2019-04-11T00:29:46.993Z,54.40
2019-04-11T00:30:52.440Z,54.40
2019-04-11T00:31:57.001Z,54.40
2019-04-11T00:33:02.206Z,54.70
2019-04-11T00:34:06.851Z,54.80
2019-04-11T00:35:11.210Z,54.80
2019-04-11T00:36:16.518Z,54.60
2019-04-11T00:37:21.094Z,54.70
2019-04-11T00:38:25.686Z,54.80
2019-04-11T00:39:30.019Z,55.10
2019-04-11T00:40:35.358Z,54.90
2019-04-11T00:41:39.792Z,55.00
2019-04-11T00:42:45.040Z,55.00
2019-04-11T00:43:50.387Z,55.00
2019-04-11T00:44:54.962Z,55.10
2019-04-11T00:46:00.159Z,55.00
2019-04-11T00:47:05.188Z,55.20
2019-04-11T00:48:09.409Z,55.00
2019-04-11T00:49:14.415Z,55.00
2019-04-11T00:50:19.080Z,55.10
2019-04-11T00:51:23.616Z,55.20
2019-04-11T00:52:27.879Z,55.20
2019-04-11T00:53:32.084Z,55.10
2019-04-11T00:54:36.321Z,55.40
2019-04-11T00:55:41.763Z,55.60
2019-04-11T00:56:46.032Z,55.40
2019-04-11T00:57:50.232Z,55.30
2019-04-11T00:58:54.479Z,55.40
2019-04-11T00:59:58.686Z,55.90
2019-04-11T01:01:03.747Z,55.60
2019-04-11T01:02:09.332Z,55.60
2019-04-11T01:03:13.814Z,55.70
2019-04-11T01:04:18.145Z,56.00
2019-04-11T01:05:23.468Z,56.50
2019-04-11T01:06:28.031Z,55.60
2019-04-11T01:07:33.186Z,55.70
2019-04-11T01:08:37.810Z,55.90
2019-04-11T01:09:42.309Z,56.00
2019-04-11T01:10:47.688Z,55.90
2019-04-11T01:11:52.172Z,56.00
2019-04-11T01:12:56.697Z,55.90
2019-04-11T01:14:01.586Z,56.10
2019-04-11T01:15:07.321Z,56.10
2019-04-11T01:16:34.784Z,55.90
2019-04-11T01:17:39.256Z,56.00
2019-04-11T01:18:44.384Z,55.90
2019-04-11T01:19:49.053Z,56.00
2019-04-11T01:20:53.678Z,56.20
2019-04-11T01:21:59.175Z,56.10
2019-04-11T01:23:04.763Z,56.10
2019-04-11T01:24:09.287Z,56.30
2019-04-11T01:25:14.665Z,56.20
2019-04-11T01:26:19.169Z,56.90
2019-04-11T01:27:23.711Z,56.10
2019-04-11T01:28:28.906Z,56.30
2019-04-11T01:29:33.562Z,56.30
2019-04-11T01:30:45.122Z,56.80
2019-04-11T01:31:53.835Z,57.20
2019-04-11T01:32:58.985Z,56.60
2019-04-11T01:34:04.345Z,56.80
2019-04-11T01:35:08.912Z,56.80
2019-04-11T01:36:13.753Z,56.90
2019-04-11T01:37:18.049Z,56.90
2019-04-11T01:38:23.720Z,56.80
2019-04-11T01:39:47.390Z,56.80
2019-04-11T01:40:51.963Z,56.90
2019-04-11T01:41:56.220Z,56.80
2019-04-11T01:43:00.427Z,57.80
2019-04-11T01:44:07.100Z,57.30
2019-04-11T01:45:11.455Z,57.20
2019-04-11T01:46:16.103Z,57.30
2019-04-11T01:47:39.257Z,57.20
2019-04-11T01:48:57.885Z,57.30
2019-04-11T01:50:03.082Z,57.60
2019-04-11T01:51:07.542Z,57.50
2019-04-11T01:52:11.949Z,57.40
2019-04-11T01:53:17.107Z,57.60
2019-04-11T01:54:21.779Z,57.60
2019-04-11T01:55:26.250Z,58.00
2019-04-11T01:56:31.461Z,57.50
2019-04-11T01:57:36.145Z,57.60
2019-04-11T01:58:40.613Z,57.90
2019-04-11T01:59:45.817Z,57.70
2019-04-11T02:01:18.843Z,57.90
2019-04-11T02:02:38.911Z,58.10
2019-04-11T02:03:55.938Z,58.00
2019-04-11T02:05:10.425Z,57.90
2019-04-11T02:06:15.909Z,58.20
2019-04-11T02:07:20.614Z,58.30
2019-04-11T02:08:25.049Z,58.10
2019-04-11T02:09:30.319Z,58.10
2019-04-11T02:10:35.047Z,58.00
2019-04-11T02:11:39.497Z,58.10
2019-04-11T02:12:43.729Z,58.40
2019-04-11T02:13:48.213Z,58.60
2019-04-11T02:14:52.454Z,58.70
2019-04-11T02:15:58.347Z,58.90
2019-04-11T02:17:02.636Z,58.80
2019-04-11T02:18:07.579Z,58.70
2019-04-11T02:19:12.141Z,58.60
2019-04-11T02:20:16.635Z,58.60
2019-04-11T02:21:21.854Z,58.50
2019-04-11T02:22:35.863Z,58.60
2019-04-11T02:23:51.028Z,58.60
2019-04-11T02:25:03.888Z,58.90
2019-04-11T02:26:27.260Z,58.60
2019-04-11T02:27:32.685Z,58.80
2019-04-11T02:28:37.050Z,58.90
2019-04-11T02:29:41.217Z,58.70
2019-04-11T02:30:48.549Z,59.40
2019-04-11T02:31:53.541Z,59.10
2019-04-11T02:33:00.241Z,59.30
2019-04-11T02:34:06.479Z,59.20
2019-04-11T02:35:11.151Z,59.60
2019-04-11T02:36:16.656Z,59.70
2019-04-11T02:37:21.959Z,59.40
2019-04-11T02:38:28.299Z,59.60
2019-04-11T02:39:33.800Z,59.50
2019-04-11T02:40:38.753Z,59.70
2019-04-11T02:41:44.548Z,59.50
2019-04-11T02:42:49.859Z,59.70
2019-04-11T02:43:55.001Z,59.70
2019-04-11T02:45:13.197Z,59.80
2019-04-11T02:46:16.857Z,59.80
2019-04-11T02:47:16.227Z,59.80
2019-04-11T02:48:18.352Z,60.00
2019-04-11T02:49:23.750Z,60.00
2019-04-11T02:50:29.969Z,60.00
2019-04-11T02:51:34.603Z,60.00
2019-04-11T02:52:40.119Z,60.10
2019-04-11T02:53:45.245Z,60.00
2019-04-11T02:54:49.499Z,60.20
2019-04-11T02:55:54.211Z,60.20
2019-04-11T02:57:00.066Z,60.20
2019-04-11T02:58:06.248Z,60.50
2019-04-11T02:59:11.294Z,60.50
2019-04-11T03:00:15.955Z,60.40
2019-04-11T03:01:21.987Z,60.40
2019-04-11T03:02:26.835Z,60.80
2019-04-11T03:03:32.011Z,60.50
2019-04-11T03:04:37.163Z,60.50
2019-04-11T03:05:41.909Z,60.90
2019-04-11T03:06:47.903Z,60.70
2019-04-11T03:07:53.992Z,60.70
2019-04-11T03:08:59.339Z,60.60
2019-04-11T03:10:04.943Z,61.20
2019-04-11T03:11:10.611Z,61.00
2019-04-11T03:12:15.504Z,61.10
2019-04-11T03:13:21.072Z,61.10
2019-04-11T03:14:25.448Z,60.90
2019-04-11T03:15:43.355Z,61.20
2019-04-11T03:16:49.304Z,61.20
2019-04-11T03:17:44.550Z,61.30
2019-04-11T03:19:08.586Z,61.30
2019-04-11T03:20:04.357Z,61.30
2019-04-11T03:21:04.605Z,61.70
2019-04-11T03:22:05.561Z,61.60
2019-04-11T03:23:13.841Z,61.50
2019-04-11T03:24:17.455Z,61.60
2019-04-11T03:25:22.536Z,61.60
2019-04-11T03:26:27.082Z,61.70
2019-04-11T03:27:32.532Z,62.10
2019-04-11T03:28:40.233Z,62.10
2019-04-11T03:29:43.186Z,62.00
2019-04-11T03:31:15.827Z,62.20
2019-04-11T03:35:03.071Z,62.40
2019-04-11T03:37:44.574Z,62.20
2019-04-11T03:38:46.503Z,62.40
2019-04-11T03:39:57.231Z,62.60
2019-04-11T03:40:57.026Z,62.50
2019-04-11T03:42:04.823Z,63.20
2019-04-11T03:43:06.443Z,62.80
2019-04-11T03:44:07.855Z,62.70
2019-04-11T03:45:29.021Z,62.50
2019-04-11T03:46:25.076Z,62.50
2019-04-11T03:47:27.864Z,62.60
2019-04-11T03:48:35.548Z,62.60
2019-04-11T03:49:35.604Z,62.60
2019-04-11T03:50:34.819Z,62.70
2019-04-11T03:51:41.402Z,62.60
2019-04-11T03:52:45.267Z,62.90
2019-04-11T03:53:51.396Z,63.00
2019-04-11T03:54:56.244Z,62.90
2019-04-11T03:56:01.644Z,63.20
2019-04-11T03:57:07.848Z,63.20
2019-04-11T03:58:13.212Z,63.10
2019-04-11T03:59:19.564Z,63.10
2019-04-11T04:00:25.681Z,63.10
2019-04-11T04:01:29.736Z,63.20
2019-04-11T04:02:34.848Z,63.10
2019-04-11T04:03:39.387Z,63.40
2019-04-11T04:04:45.175Z,63.40
2019-04-11T04:05:50.642Z,63.50
2019-04-11T04:06:55.408Z,63.50
2019-04-11T04:08:01.740Z,63.40
2019-04-11T04:09:06.788Z,63.60
2019-04-11T04:10:13.202Z,63.80
2019-04-11T04:11:27.307Z,63.30
2019-04-11T04:12:31.441Z,63.40
2019-04-11T04:13:37.474Z,63.50
2019-04-11T04:15:09.126Z,63.70
2019-04-11T04:16:26.141Z,63.50
2019-04-11T04:17:47.669Z,63.60
2019-04-11T04:19:01.589Z,63.70
2019-04-11T04:20:24.757Z,63.80
2019-04-11T04:21:40.840Z,63.90
2019-04-11T04:23:05.269Z,63.90
2019-04-11T04:24:32.784Z,63.80
2019-04-11T04:25:36.742Z,63.90
2019-04-11T04:26:41.267Z,64.00
2019-04-11T04:27:46.842Z,64.20
2019-04-11T04:28:51.393Z,64.30
2019-04-11T04:29:58.513Z,64.30
2019-04-11T04:31:02.086Z,64.30
2019-04-11T04:32:08.186Z,64.40
2019-04-11T04:33:12.963Z,64.20
2019-04-11T04:34:19.585Z,63.90
2019-04-11T04:35:25.683Z,64.40
2019-04-11T04:36:30.906Z,64.40
2019-04-11T04:37:35.496Z,64.70
2019-04-11T04:38:41.473Z,64.50
2019-04-11T04:39:45.716Z,64.50
2019-04-11T04:41:05.968Z,64.50
2019-04-11T04:42:03.674Z,64.50
2019-04-11T04:43:04.973Z,64.60
2019-04-11T04:44:08.543Z,64.60
2019-04-11T04:45:15.690Z,64.60
2019-04-11T04:46:35.082Z,64.70
2019-04-11T04:47:37.124Z,65.30
2019-04-11T04:48:32.188Z,64.80
2019-04-11T04:49:38.639Z,64.80
2019-04-11T04:50:44.622Z,64.80
2019-04-11T04:51:48.524Z,64.90
2019-04-11T04:52:53.563Z,64.70
2019-04-11T04:53:59.880Z,64.70
2019-04-11T04:55:06.068Z,65.10
2019-04-11T04:56:11.086Z,65.00
2019-04-11T04:57:15.552Z,65.10
2019-04-11T04:58:20.783Z,65.20
2019-04-11T04:59:25.770Z,65.20
2019-04-11T05:00:31.885Z,65.20
2019-04-11T05:01:37.347Z,64.90
2019-04-11T05:02:43.765Z,65.00
2019-04-11T05:03:48.738Z,64.80
2019-04-11T05:04:54.305Z,65.00
2019-04-11T05:06:00.812Z,64.90
2019-04-11T05:07:05.299Z,64.70
2019-04-11T05:08:10.726Z,65.50
2019-04-11T05:09:15.364Z,64.40
2019-04-11T05:10:20.035Z,65.50
2019-04-11T05:11:26.094Z,64.90
2019-04-11T05:12:30.359Z,64.80
2019-04-11T05:13:34.742Z,64.70
2019-04-11T05:14:40.852Z,64.80
2019-04-11T05:15:45.410Z,64.80
2019-04-11T05:16:50.436Z,65.00
2019-04-11T05:17:54.887Z,64.80
2019-04-11T05:18:59.467Z,64.90
2019-04-11T05:20:05.072Z,64.50
2019-04-11T05:21:09.270Z,64.60
2019-04-11T05:22:14.633Z,64.10
2019-04-11T05:23:18.884Z,65.20
2019-04-11T05:24:23.114Z,64.20
2019-04-11T05:25:28.565Z,64.10
2019-04-11T05:26:33.345Z,64.20
2019-04-11T05:27:37.883Z,64.00
2019-04-11T05:28:42.253Z,63.70
2019-04-11T05:29:46.426Z,64.00
2019-04-11T05:30:51.262Z,63.70
2019-04-11T05:31:56.667Z,63.50
2019-04-11T05:33:01.808Z,63.40
2019-04-11T05:34:06.164Z,63.20
2019-04-11T05:35:11.076Z,63.00
2019-04-11T05:36:16.465Z,62.90
2019-04-11T05:37:20.865Z,62.60
2019-04-11T05:38:25.334Z,62.60
2019-04-11T05:39:29.812Z,62.80
2019-04-11T05:40:34.668Z,62.50
2019-04-11T05:41:42.046Z,62.30
2019-04-11T05:42:45.170Z,62.60
2019-04-11T05:43:49.468Z,62.50
2019-04-11T05:44:54.704Z,62.30
2019-04-11T05:46:00.166Z,62.00
2019-04-11T05:47:06.514Z,61.90
2019-04-11T05:48:15.679Z,62.10
2019-04-11T05:49:26.320Z,61.90
2019-04-11T05:50:33.981Z,62.20
2019-04-11T05:51:42.575Z,61.60
2019-04-11T05:52:44.521Z,61.50
2019-04-11T05:53:51.318Z,61.50
2019-04-11T05:54:58.458Z,61.30
2019-04-11T05:56:03.794Z,61.40
2019-04-11T05:57:09.004Z,61.20
2019-04-11T05:58:14.436Z,61.00
2019-04-11T05:59:23.878Z,60.90
2019-04-11T06:00:59.677Z,60.90
2019-04-11T06:02:10.995Z,60.80
2019-04-11T06:03:15.563Z,60.60
2019-04-11T06:04:28.476Z,60.10
2019-04-11T06:05:39.189Z,59.80
2019-04-11T06:07:07.847Z,59.60
2019-04-11T06:08:21.129Z,59.60
2019-04-11T06:09:24.147Z,59.10
2019-04-11T06:11:01.421Z,58.30
2019-04-11T06:12:23.358Z,58.30
2019-04-11T06:13:49.616Z,57.10
2019-04-11T06:15:13.547Z,55.40
2019-04-11T06:16:18.808Z,53.70
2019-04-11T06:17:24.219Z,52.00
2019-04-11T06:18:57.719Z,49.70
2019-04-11T06:20:22.057Z,49.30
2019-04-11T06:21:30.057Z,48.30
2019-04-11T06:22:36.226Z,45.60
2019-04-11T06:24:08.453Z,44.50
2019-04-11T06:25:38.161Z,42.70
2019-04-11T06:26:49.600Z,41.00
2019-04-11T06:28:02.030Z,39.20
2019-04-11T06:29:17.403Z,38.90
2019-04-11T06:30:40.144Z,38.30
2019-04-11T06:32:07.683Z,37.20
2019-04-11T06:33:18.881Z,36.50
2019-04-11T06:34:25.528Z,37.60
2019-04-11T06:35:48.615Z,36.60
2019-04-11T06:37:11.868Z,36.50
2019-04-11T06:38:34.378Z,35.50
2019-04-11T06:39:43.359Z,35.70
2019-04-11T06:41:10.284Z,35.50
2019-04-11T06:42:35.430Z,35.40
2019-04-11T06:43:45.442Z,36.30
2019-04-11T06:45:09.343Z,36.40
2019-04-11T06:46:27.540Z,36.30
2019-04-11T06:47:59.709Z,36.20
2019-04-11T06:49:09.845Z,35.60
2019-04-11T06:50:39.644Z,35.30
2019-04-11T06:51:48.390Z,35.10
2019-04-11T06:52:53.026Z,34.10
2019-04-11T06:54:25.240Z,33.30
2019-04-11T06:55:48.419Z,32.60
2019-04-11T06:56:53.728Z,33.00
2019-04-11T06:58:02.983Z,32.80
2019-04-11T06:59:12.177Z,32.90
2019-04-11T07:00:17.101Z,32.50
2019-04-11T07:01:24.272Z,32.40
2019-04-11T07:02:29.980Z,32.80
2019-04-11T07:03:38.933Z,32.90
2019-04-11T07:05:04.543Z,33.30
2019-04-11T07:06:18.101Z,33.10
2019-04-11T07:07:26.135Z,34.30
2019-04-11T07:08:34.336Z,34.50
2019-04-11T07:09:55.988Z,34.30
2019-04-11T07:11:04.269Z,34.20
2019-04-11T07:12:13.379Z,34.20
2019-04-11T07:13:22.786Z,34.50
2019-04-11T07:14:33.256Z,33.80
2019-04-11T07:15:41.048Z,33.70
2019-04-11T07:17:07.368Z,33.80
2019-04-11T07:18:28.969Z,33.20
2019-04-11T07:20:04.619Z,33.30
2019-04-11T07:21:10.718Z,33.20
2019-04-11T07:22:34.795Z,32.70
2019-04-11T07:23:57.584Z,32.30
2019-04-11T07:25:20.280Z,31.90
2019-04-11T07:26:58.951Z,31.20
2019-04-11T07:28:10.847Z,30.60
2019-04-11T07:29:52.209Z,30.30
2019-04-11T07:31:14.701Z,29.80
2019-04-11T07:32:20.674Z,29.40
2019-04-11T07:33:39.353Z,28.30
2019-04-11T07:35:02.297Z,27.80
2019-04-11T07:36:24.499Z,27.40
2019-04-11T07:38:00.975Z,27.40
2019-04-11T07:39:20.083Z,27.20
2019-04-11T07:40:43.034Z,27.40
2019-04-11T07:42:13.710Z,27.40
2019-04-11T07:43:20.283Z,27.80
2019-04-11T07:44:27.540Z,28.80
2019-04-11T07:45:39.172Z,29.00
2019-04-11T07:46:53.684Z,28.30
2019-04-11T07:48:08.665Z,28.20
2019-04-11T07:49:13.025Z,28.10
2019-04-11T07:50:19.518Z,27.80
2019-04-11T07:51:28.007Z,27.20
2019-04-11T07:52:36.069Z,27.00
2019-04-11T07:53:43.729Z,27.00
2019-04-11T07:54:48.016Z,27.00
2019-04-11T07:55:53.143Z,26.70
2019-04-11T07:57:19.519Z,27.00
2019-04-11T07:58:30.828Z,25.90
2019-04-11T08:00:00.189Z,26.20
2019-04-11T08:01:30.543Z,25.20
2019-04-11T08:02:53.229Z,25.30
2019-04-11T08:04:15.052Z,25.30
2019-04-11T08:05:54.432Z,24.80
2019-04-11T08:07:20.323Z,24.80
2019-04-11T08:08:43.621Z,24.20
2019-04-11T08:09:52.797Z,24.10
2019-04-11T08:11:07.200Z,23.50
2019-04-11T08:12:23.554Z,23.50
2019-04-11T08:13:44.819Z,23.00
2019-04-11T08:15:11.293Z,22.60
2019-04-11T08:16:40.328Z,22.10
2019-04-11T08:17:45.992Z,23.10
2019-04-11T08:19:13.159Z,22.00
2019-04-11T08:20:39.544Z,21.60
2019-04-11T08:22:08.599Z,21.10
2019-04-11T08:23:13.785Z,21.20
2019-04-11T08:24:26.858Z,20.80
2019-04-11T08:25:49.320Z,20.70
2019-04-11T08:27:11.442Z,20.60
2019-04-11T08:28:16.481Z,20.70
2019-04-11T08:29:22.204Z,20.00
2019-04-11T08:30:31.200Z,20.60
2019-04-11T08:31:57.662Z,20.30
2019-04-11T08:33:02.834Z,19.90
2019-04-11T08:34:08.270Z,19.80
2019-04-11T08:35:33.199Z,19.60
2019-04-11T08:36:54.936Z,19.80
2019-04-11T08:38:04.941Z,19.50
2019-04-11T08:39:15.817Z,19.40
2019-04-11T08:40:20.395Z,19.00
2019-04-11T08:41:56.975Z,18.70
2019-04-11T08:43:10.815Z,18.40
2019-04-11T08:44:21.627Z,19.40
2019-04-11T08:45:26.913Z,18.90
2019-04-11T08:46:35.144Z,19.00
2019-04-11T08:47:51.261Z,18.50
2019-04-11T08:48:54.045Z,18.80
2019-04-11T08:49:58.839Z,18.90
2019-04-11T08:51:05.637Z,19.20
2019-04-11T08:52:18.307Z,18.60
2019-04-11T08:53:47.486Z,19.20
2019-04-11T08:55:04.222Z,18.80
2019-04-11T08:56:08.669Z,18.20
2019-04-11T08:57:13.765Z,18.00
2019-04-11T08:58:28.825Z,18.60
2019-04-11T08:59:58.779Z,17.60
2019-04-11T09:01:05.486Z,18.00
2019-04-11T09:02:10.736Z,18.10
2019-04-11T09:03:22.172Z,17.80
2019-04-11T09:05:04.981Z,18.00
2019-04-11T09:06:19.324Z,18.10
2019-04-11T09:07:27.796Z,17.70
2019-04-11T09:08:54.450Z,17.70
2019-04-11T09:10:17.830Z,17.60
2019-04-11T09:11:48.828Z,18.10
2019-04-11T09:13:07.059Z,17.90
2019-04-11T09:14:26.430Z,17.40
2019-04-11T09:15:48.831Z,16.80
2019-04-11T09:16:56.322Z,17.70
2019-04-11T09:18:09.161Z,16.90
2019-04-11T09:19:18.909Z,17.80
2019-04-11T09:20:47.885Z,18.00
2019-04-11T09:22:10.919Z,17.70
2019-04-11T09:23:18.098Z,17.30
2019-04-11T09:24:36.696Z,17.00
2019-04-11T09:26:00.004Z,16.90
2019-04-11T09:27:23.305Z,16.80
2019-04-11T09:28:40.239Z,16.60
2019-04-11T09:29:48.641Z,16.60
2019-04-11T09:31:21.233Z,16.90
2019-04-11T09:32:48.669Z,17.40
2019-04-11T09:34:01.528Z,18.50
2019-04-11T09:35:12.627Z,18.20
2019-04-11T09:36:34.684Z,18.00
2019-04-11T09:37:42.911Z,17.70
2019-04-11T09:38:48.722Z,17.40
2019-04-11T09:40:24.428Z,17.60
2019-04-11T09:41:46.857Z,17.40
2019-04-11T09:42:55.655Z,17.80
2019-04-11T09:44:02.307Z,18.00
2019-04-11T09:45:33.896Z,17.60
2019-04-11T09:46:56.781Z,17.50
2019-04-11T09:48:19.872Z,17.40
2019-04-11T09:49:31.460Z,17.50
2019-04-11T09:50:46.924Z,17.40
2019-04-11T09:52:06.032Z,16.60
2019-04-11T09:53:12.117Z,17.60
2019-04-11T09:54:32.447Z,16.70
2019-04-11T09:56:02.835Z,16.90
2019-04-11T09:57:36.484Z,16.50
2019-04-11T09:58:42.047Z,16.40
2019-04-11T09:59:58.214Z,16.50
2019-04-11T10:01:35.079Z,16.60
2019-04-11T10:03:13.506Z,16.90
2019-04-11T10:04:18.852Z,16.80
2019-04-11T10:05:27.288Z,16.60
2019-04-11T10:06:44.588Z,16.90
2019-04-11T10:08:02.196Z,17.00
2019-04-11T10:09:08.872Z,17.20
2019-04-11T10:10:35.251Z,17.80
2019-04-11T10:11:48.500Z,17.70
2019-04-11T10:13:10.825Z,17.70
2019-04-11T10:14:19.664Z,18.40
2019-04-11T10:15:35.587Z,17.50
2019-04-11T10:16:58.192Z,17.50
2019-04-11T10:18:27.754Z,17.40
2019-04-11T10:19:38.642Z,17.60
2019-04-11T10:20:42.872Z,17.70
2019-04-11T10:21:52.364Z,17.80
2019-04-11T10:23:10.445Z,18.40
2019-04-11T10:24:40.845Z,19.10
2019-04-11T10:26:04.499Z,19.60
2019-04-11T10:27:17.566Z,20.50
2019-04-11T10:28:45.968Z,21.30
2019-04-11T10:30:08.635Z,21.70
2019-04-11T10:31:18.081Z,21.90
2019-04-11T10:32:25.432Z,21.10
2019-04-11T10:34:04.591Z,20.60
2019-04-11T10:35:28.827Z,20.30
2019-04-11T10:36:36.966Z,19.30
2019-04-11T10:37:42.425Z,19.60
2019-04-11T10:38:46.955Z,19.00
2019-04-11T10:40:00.075Z,18.90
2019-04-11T10:41:23.595Z,18.90
2019-04-11T10:42:28.778Z,18.20
2019-04-11T10:43:34.215Z,17.70
2019-04-11T10:44:45.761Z,18.10
2019-04-11T10:46:07.193Z,18.20
2019-04-11T10:47:17.589Z,18.10
2019-04-11T10:48:33.768Z,18.00
2019-04-11T10:50:04.069Z,18.20
2019-04-11T10:51:17.431Z,18.60
2019-04-11T10:52:27.058Z,19.70
2019-04-11T10:53:31.604Z,20.00
2019-04-11T10:54:36.699Z,21.40
2019-04-11T10:56:08.889Z,21.10
2019-04-11T10:57:27.779Z,21.40
2019-04-11T10:58:38.965Z,21.50
2019-04-11T10:59:43.215Z,21.70
2019-04-11T11:00:55.673Z,21.70
2019-04-11T11:02:06.739Z,23.30
2019-04-11T11:03:36.110Z,22.40
2019-04-11T11:04:48.447Z,22.40
2019-04-11T11:05:55.518Z,22.20
2019-04-11T11:07:06.489Z,22.50
2019-04-11T11:08:29.808Z,22.70
2019-04-11T11:09:44.446Z,22.90
2019-04-11T11:10:50.029Z,23.90
2019-04-11T11:12:14.376Z,24.00
2019-04-11T11:13:56.352Z,24.20
2019-04-11T11:15:09.094Z,25.30
2019-04-11T11:16:13.939Z,25.00
2019-04-11T11:17:47.183Z,25.40
2019-04-11T11:19:20.905Z,25.80
2019-04-11T11:20:34.114Z,26.40
2019-04-11T11:21:35.264Z,27.10
2019-04-11T11:23:10.946Z,27.60
2019-04-11T11:24:29.547Z,28.00
2019-04-11T11:25:48.330Z,27.50
2019-04-11T11:26:53.568Z,27.30
2019-04-11T11:27:57.915Z,27.10
2019-04-11T11:29:27.087Z,27.00
2019-04-11T11:30:49.566Z,27.40
2019-04-11T11:32:11.331Z,26.70
2019-04-11T11:33:16.250Z,26.70
2019-04-11T11:34:31.020Z,26.70
2019-04-11T11:35:51.959Z,27.40
2019-04-11T11:37:15.848Z,27.30
2019-04-11T11:38:24.052Z,27.30
2019-04-11T11:39:37.390Z,27.30
2019-04-11T11:41:16.348Z,26.90
2019-04-11T11:42:34.744Z,27.30
2019-04-11T11:43:39.129Z,27.50
2019-04-11T11:44:53.019Z,27.60
2019-04-11T11:46:16.087Z,27.70
2019-04-11T11:47:41.211Z,27.90
2019-04-11T11:48:50.836Z,28.10
2019-04-11T11:50:00.114Z,28.20
2019-04-11T11:51:03.306Z,28.20
2019-04-11T11:52:31.907Z,28.00
2019-04-11T11:53:55.538Z,28.00
2019-04-11T11:54:59.889Z,28.00
2019-04-11T11:56:05.387Z,27.90
2019-04-11T11:57:18.352Z,27.80
2019-04-11T11:58:43.547Z,27.70
2019-04-11T11:59:50.455Z,27.50
2019-04-11T12:00:57.364Z,27.50
2019-04-11T12:02:04.885Z,27.60
2019-04-11T12:03:30.720Z,27.30
2019-04-11T12:04:58.154Z,27.20
2019-04-11T12:06:05.311Z,26.60
2019-04-11T12:07:11.130Z,25.50
2019-04-11T12:08:34.969Z,25.80
2019-04-11T12:09:56.967Z,26.30
2019-04-11T12:11:04.019Z,26.90
2019-04-11T12:12:13.601Z,26.50
2019-04-11T12:13:39.419Z,26.80
2019-04-11T12:15:22.348Z,27.20
2019-04-11T12:16:43.874Z,27.30
2019-04-11T12:18:18.467Z,27.70
2019-04-11T12:19:42.665Z,28.20
2019-04-11T12:20:46.096Z,27.90
2019-04-11T12:21:51.726Z,28.40
2019-04-11T12:22:57.353Z,28.70
2019-04-11T12:24:29.621Z,29.30
2019-04-11T12:25:39.516Z,28.80
2019-04-11T12:27:02.679Z,28.10
2019-04-11T12:28:27.594Z,28.30
2019-04-11T12:30:10.725Z,28.40
2019-04-11T12:31:15.568Z,27.60
2019-04-11T12:32:24.269Z,27.90
2019-04-11T12:33:54.009Z,28.00
2019-04-11T12:35:19.967Z,27.50
2019-04-11T12:36:30.872Z,27.60
2019-04-11T12:37:39.887Z,27.70
2019-04-11T12:38:59.095Z,27.40
2019-04-11T12:40:27.364Z,26.40
2019-04-11T12:42:08.908Z,26.60
2019-04-11T12:43:13.331Z,25.70
2019-04-11T12:44:51.781Z,25.80
2019-04-11T12:46:29.988Z,25.20
2019-04-11T12:47:45.119Z,25.10
2019-04-11T12:48:49.350Z,25.10
2019-04-11T12:50:30.804Z,25.50
2019-04-11T12:51:54.048Z,25.50
2019-04-11T12:53:24.311Z,25.60
2019-04-11T12:54:30.041Z,25.70
2019-04-11T12:56:05.708Z,26.00
2019-04-11T12:57:28.869Z,25.70
2019-04-11T12:58:36.961Z,25.90
2019-04-11T12:59:41.280Z,26.60
2019-04-11T13:01:07.089Z,26.80
2019-04-11T13:02:29.194Z,26.70
2019-04-11T13:04:01.435Z,27.30
2019-04-11T13:05:07.020Z,27.70
2019-04-11T13:06:19.216Z,27.60
2019-04-11T13:07:41.350Z,27.60
2019-04-11T13:09:03.952Z,27.70
2019-04-11T13:10:30.707Z,27.30
2019-04-11T13:11:35.840Z,27.40
2019-04-11T13:13:06.140Z,28.00
2019-04-11T13:14:29.362Z,27.90
2019-04-11T13:15:37.095Z,27.50
2019-04-11T13:16:42.407Z,26.70
2019-04-11T13:17:53.135Z,26.70
2019-04-11T13:19:14.884Z,26.50
2019-04-11T13:20:43.260Z,26.30
2019-04-11T13:22:04.391Z,26.90
2019-04-11T13:23:18.982Z,27.40
2019-04-11T13:24:41.180Z,28.50
2019-04-11T13:26:04.360Z,28.20
2019-04-11T13:27:23.209Z,28.40
2019-04-11T13:28:28.017Z,28.50
2019-04-11T13:29:48.606Z,28.80
2019-04-11T13:31:20.731Z,28.90
2019-04-11T13:32:37.461Z,28.50
2019-04-11T13:33:41.683Z,28.20
2019-04-11T13:34:47.000Z,28.80
2019-04-11T13:36:12.916Z,28.50
2019-04-11T13:37:34.732Z,28.60
2019-04-11T13:38:41.719Z,28.40
2019-04-11T13:39:50.743Z,28.20
2019-04-11T13:41:20.640Z,28.00
2019-04-11T13:42:58.411Z,28.10
2019-04-11T13:44:09.703Z,28.10
2019-04-11T13:45:14.404Z,28.20
2019-04-11T13:46:35.146Z,28.60
2019-04-11T13:47:57.096Z,28.60
2019-04-11T13:49:20.266Z,29.10
2019-04-11T13:50:24.599Z,29.10
2019-04-11T13:51:39.891Z,29.30
2019-04-11T13:53:03.052Z,29.30
2019-04-11T13:54:25.002Z,29.60
2019-04-11T13:55:31.467Z,29.60
2019-04-11T13:56:50.770Z,29.00
2019-04-11T13:58:13.948Z,30.00
2019-04-11T13:59:36.077Z,29.40
2019-04-11T14:00:45.228Z,28.80
2019-04-11T14:01:50.053Z,28.60
2019-04-11T14:03:08.017Z,29.00
2019-04-11T14:04:19.451Z,28.50
2019-04-11T14:05:23.708Z,29.50
2019-04-11T14:06:38.208Z,29.30
2019-04-11T14:07:42.855Z,29.40
2019-04-11T14:09:24.641Z,29.00
2019-04-11T14:10:31.476Z,29.50
2019-04-11T14:11:35.584Z,29.20
2019-04-11T14:12:39.829Z,29.10
2019-04-11T14:13:44.559Z,28.90
2019-04-11T14:15:09.916Z,29.10
2019-04-11T14:16:16.961Z,28.60
2019-04-11T14:17:31.098Z,28.80
2019-04-11T14:18:46.797Z,29.00
2019-04-11T14:20:14.624Z,28.80
2019-04-11T14:21:20.466Z,29.60
2019-04-11T14:22:29.242Z,28.70
2019-04-11T14:23:52.512Z,28.60
2019-04-11T14:25:15.670Z,28.90
2019-04-11T14:26:33.475Z,28.90
2019-04-11T14:27:37.703Z,28.90
2019-04-11T14:29:13.135Z,28.60
2019-04-11T14:30:52.578Z,28.60
2019-04-11T14:32:08.787Z,28.60
2019-04-11T14:33:12.965Z,28.30
2019-04-11T14:34:39.383Z,28.60
2019-04-11T14:35:57.826Z,28.70
2019-04-11T14:37:20.992Z,29.10
2019-04-11T14:38:25.287Z,28.90
2019-04-11T14:39:32.360Z,29.20
2019-04-11T14:40:47.619Z,29.70
2019-04-11T14:42:11.740Z,30.20
2019-04-11T14:43:36.748Z,30.80
2019-04-11T14:44:41.024Z,31.00
2019-04-11T14:46:16.285Z,30.80
2019-04-11T14:47:39.176Z,30.70
2019-04-11T14:48:45.859Z,31.10
2019-04-11T14:49:53.618Z,31.70
2019-04-11T14:51:23.847Z,31.90
2019-04-11T14:52:47.269Z,31.70
2019-04-11T14:54:03.187Z,31.90
2019-04-11T14:55:08.690Z,32.60
2019-04-11T14:56:13.187Z,32.30
2019-04-11T14:57:46.868Z,32.40
2019-04-11T14:59:08.975Z,33.10
2019-04-11T15:00:40.642Z,32.10
2019-04-11T15:01:46.850Z,32.10
2019-04-11T15:03:08.875Z,32.00
2019-04-11T15:04:31.234Z,32.50
2019-04-11T15:06:00.243Z,32.70
2019-04-11T15:07:04.479Z,33.70
2019-04-11T15:08:14.902Z,32.80
2019-04-11T15:09:37.688Z,32.70
2019-04-11T15:11:01.433Z,32.60
2019-04-11T15:12:17.925Z,32.80
2019-04-11T15:13:25.507Z,33.00
2019-04-11T15:14:49.577Z,32.30
2019-04-11T15:16:11.043Z,32.70
2019-04-11T15:17:24.255Z,32.20
2019-04-11T15:18:31.169Z,32.00
2019-04-11T15:19:35.572Z,31.90
2019-04-11T15:20:57.415Z,32.50
2019-04-11T15:22:19.625Z,32.30
2019-04-11T15:23:48.812Z,32.70
2019-04-11T15:24:55.621Z,32.40
2019-04-11T15:26:24.712Z,32.50
2019-04-11T15:27:46.560Z,32.90
2019-04-11T15:29:13.731Z,32.20
2019-04-11T15:30:18.540Z,32.40
2019-04-11T15:31:39.537Z,32.00
2019-04-11T15:32:58.888Z,32.00
2019-04-11T15:34:20.931Z,31.80
2019-04-11T15:35:25.197Z,32.40
2019-04-11T15:36:29.405Z,31.70
2019-04-11T15:37:51.483Z,32.10
2019-04-11T15:39:13.706Z,32.00
2019-04-11T15:40:29.463Z,32.10